createdAt,value
2022-10-06T00:00:47.293Z,16.59
2022-10-06T00:03:14.574Z,16.60
2022-10-06T00:05:41.887Z,16.83
2022-10-06T00:08:10.241Z,17.02
2022-10-06T00:10:37.345Z,17.08
2022-10-06T00:13:03.957Z,16.57
2022-10-06T00:15:32.468Z,16.55
2022-10-06T00:17:59.716Z,16.58
2022-10-06T00:20:27.092Z,16.61
2022-10-06T00:22:54.575Z,16.61
2022-10-06T00:25:23.476Z,16.46
2022-10-06T00:27:52.313Z,16.43
2022-10-06T00:30:22.340Z,16.09
2022-10-06T00:32:58.517Z,16.18
2022-10-06T00:35:27.481Z,16.23
2022-10-06T00:37:54.586Z,16.28
2022-10-06T00:40:22.661Z,15.69
2022-10-06T00:42:53.432Z,15.46
2022-10-06T00:45:24.823Z,15.28
2022-10-06T00:47:52.647Z,15.65
2022-10-06T00:50:19.739Z,15.33
2022-10-06T00:52:46.894Z,15.43
2022-10-06T00:55:14.022Z,15.44
2022-10-06T00:57:41.802Z,15.47
2022-10-06T01:00:09.521Z,15.21
2022-10-06T01:02:44.650Z,15.53
2022-10-06T01:05:20.041Z,15.42
2022-10-06T01:07:46.728Z,15.19
2022-10-06T01:10:13.320Z,14.95
2022-10-06T01:12:40.183Z,15.45
2022-10-06T01:15:08.159Z,15.59
2022-10-06T01:17:39.161Z,15.86
2022-10-06T01:20:10.333Z,15.59
2022-10-06T01:22:46.635Z,15.95
2022-10-06T01:25:16.376Z,15.63
2022-10-06T01:27:47.828Z,15.40
2022-10-06T01:30:18.931Z,15.26
2022-10-06T01:32:45.845Z,15.34
2022-10-06T01:35:12.486Z,14.85
2022-10-06T01:37:39.101Z,14.60
2022-10-06T01:40:06.202Z,14.59
2022-10-06T01:42:32.859Z,14.63
2022-10-06T01:44:59.692Z,14.40
2022-10-06T01:47:26.308Z,14.37
2022-10-06T01:49:52.930Z,14.43
2022-10-06T01:52:20.467Z,14.35
2022-10-06T01:54:47.137Z,14.40
2022-10-06T01:57:13.758Z,14.33
2022-10-06T01:59:40.355Z,14.90
2022-10-06T02:02:06.991Z,14.93
2022-10-06T02:04:33.583Z,15.27
2022-10-06T02:07:00.179Z,15.20
2022-10-06T02:09:26.783Z,15.38
2022-10-06T02:11:53.471Z,14.94
2022-10-06T02:14:20.047Z,15.22
2022-10-06T02:16:46.638Z,15.57
2022-10-06T02:19:13.205Z,15.94
2022-10-06T02:21:39.920Z,15.09
2022-10-06T02:24:06.571Z,14.84
2022-10-06T02:26:33.264Z,14.81
2022-10-06T02:28:59.868Z,14.54
2022-10-06T02:31:26.608Z,15.29
2022-10-06T02:33:53.310Z,14.91
2022-10-06T02:36:20.076Z,14.83
2022-10-06T02:38:46.650Z,14.71
2022-10-06T02:41:13.449Z,14.58
2022-10-06T02:43:40.155Z,14.35
2022-10-06T02:46:10.994Z,14.29
2022-10-06T02:48:38.446Z,14.41
2022-10-06T02:51:08.567Z,14.17
2022-10-06T02:53:36.025Z,14.21
2022-10-06T02:56:06.077Z,14.54
2022-10-06T02:58:33.649Z,14.66
2022-10-06T03:01:11.021Z,14.51
2022-10-06T03:03:38.570Z,13.99
2022-10-06T03:06:12.826Z,14.06
2022-10-06T03:08:39.428Z,14.68
2022-10-06T03:11:06.097Z,14.23
2022-10-06T03:13:32.692Z,14.04
2022-10-06T03:15:59.526Z,14.24
2022-10-06T03:18:26.721Z,14.24
2022-10-06T03:20:53.582Z,14.61
2022-10-06T03:23:20.150Z,15.00
2022-10-06T03:25:55.400Z,15.34
2022-10-06T03:28:22.069Z,15.53
2022-10-06T03:30:49.708Z,14.64
2022-10-06T03:33:16.296Z,14.93
2022-10-06T03:35:42.900Z,14.26
2022-10-06T03:38:09.494Z,14.74
2022-10-06T03:40:36.151Z,14.84
2022-10-06T03:43:03.488Z,14.21
2022-10-06T03:45:30.192Z,13.91
2022-10-06T03:47:56.792Z,14.19
2022-10-06T03:50:23.485Z,14.34
2022-10-06T03:52:50.290Z,14.20
2022-10-06T03:55:17.030Z,14.36
2022-10-06T03:57:43.692Z,14.52
2022-10-06T04:00:11.029Z,14.00
2022-10-06T04:02:39.868Z,13.89
2022-10-06T04:05:07.080Z,13.87
2022-10-06T04:07:33.838Z,13.86
2022-10-06T04:10:00.470Z,14.01
2022-10-06T04:12:27.124Z,14.30
2022-10-06T04:14:57.903Z,14.90
2022-10-06T04:17:26.703Z,15.11
2022-10-06T04:19:53.383Z,15.17
2022-10-06T04:22:20.036Z,15.28
2022-10-06T04:24:46.880Z,15.17
2022-10-06T04:27:13.595Z,14.87
2022-10-06T04:29:40.286Z,14.85
2022-10-06T04:32:07.241Z,14.42
2022-10-06T04:34:33.928Z,14.33
2022-10-06T04:37:00.576Z,14.61
2022-10-06T04:39:27.218Z,14.96
2022-10-06T04:41:53.857Z,15.11
2022-10-06T04:44:20.459Z,15.10
2022-10-06T04:46:47.091Z,14.96
2022-10-06T04:49:19.611Z,15.06
2022-10-06T04:51:50.574Z,14.99
2022-10-06T04:54:18.054Z,14.96
2022-10-06T04:56:44.635Z,14.67
2022-10-06T04:59:11.213Z,14.23
2022-10-06T05:01:38.110Z,13.88
2022-10-06T05:04:08.095Z,14.16
2022-10-06T05:06:36.411Z,14.54
2022-10-06T05:09:14.043Z,14.82
2022-10-06T05:11:40.701Z,15.25
2022-10-06T05:14:07.638Z,14.95
2022-10-06T05:16:34.669Z,14.39
2022-10-06T05:19:01.579Z,14.55
2022-10-06T05:21:31.063Z,14.38
2022-10-06T05:23:58.630Z,14.47
2022-10-06T05:26:29.060Z,15.12
2022-10-06T05:28:55.933Z,14.86
2022-10-06T05:31:25.788Z,14.71
2022-10-06T05:33:52.879Z,14.44
2022-10-06T05:36:22.299Z,14.66
2022-10-06T05:38:49.066Z,14.66
2022-10-06T05:41:21.679Z,14.68
2022-10-06T05:43:48.525Z,14.27
2022-10-06T05:46:18.311Z,14.44
2022-10-06T05:48:48.644Z,14.67
2022-10-06T05:51:17.118Z,14.83
2022-10-06T05:53:44.055Z,15.14
2022-10-06T05:56:13.888Z,15.65
2022-10-06T05:58:46.286Z,15.96
2022-10-06T06:01:16.572Z,15.57
2022-10-06T06:03:48.175Z,15.44
2022-10-06T06:06:16.880Z,15.41
2022-10-06T06:08:44.536Z,14.66
2022-10-06T06:11:11.630Z,15.82
2022-10-06T06:13:39.741Z,16.02
2022-10-06T06:16:12.681Z,16.12
2022-10-06T06:18:39.379Z,16.53
2022-10-06T06:21:09.186Z,16.37
2022-10-06T06:23:42.520Z,16.12
2022-10-06T06:26:12.395Z,16.26
2022-10-06T06:28:39.358Z,16.70
2022-10-06T06:31:10.995Z,16.69
2022-10-06T06:33:40.258Z,16.46
2022-10-06T06:36:21.944Z,15.66
2022-10-06T06:38:51.535Z,15.27
2022-10-06T06:41:27.175Z,15.41
2022-10-06T06:43:54.300Z,15.42
2022-10-06T06:46:24.121Z,15.90
2022-10-06T06:48:55.829Z,15.29
2022-10-06T06:51:23.246Z,15.20
2022-10-06T06:53:52.185Z,15.39
2022-10-06T06:56:20.344Z,15.80
2022-10-06T06:58:47.244Z,16.25
2022-10-06T07:01:18.738Z,16.50
2022-10-06T07:03:57.619Z,16.70
2022-10-06T07:06:28.168Z,16.89
2022-10-06T07:08:57.746Z,16.90
2022-10-06T07:11:34.052Z,17.10
2022-10-06T07:14:03.833Z,17.48
2022-10-06T07:16:32.111Z,17.88
2022-10-06T07:18:58.893Z,18.03
2022-10-06T07:21:25.493Z,18.35
2022-10-06T07:23:52.226Z,18.27
2022-10-06T07:26:19.005Z,18.67
2022-10-06T07:28:45.627Z,19.52
2022-10-06T07:31:12.367Z,20.28
2022-10-06T07:33:39.016Z,20.37
2022-10-06T07:36:05.721Z,21.12
2022-10-06T07:38:32.364Z,21.45
2022-10-06T07:43:45.648Z,22.05
2022-10-06T07:46:12.541Z,22.43
2022-10-06T07:48:39.330Z,22.08
2022-10-06T07:51:19.253Z,22.50
2022-10-06T07:53:46.466Z,22.75
2022-10-06T07:56:13.091Z,22.54
2022-10-06T07:58:40.062Z,22.16
2022-10-06T08:01:12.392Z,21.89
2022-10-06T08:03:40.888Z,21.62
2022-10-06T08:06:08.636Z,21.62
2022-10-06T08:08:35.220Z,21.74
2022-10-06T08:11:02.901Z,21.76
2022-10-06T08:13:29.762Z,22.08
2022-10-06T08:16:03.097Z,21.16
2022-10-06T08:18:46.937Z,21.44
2022-10-06T08:21:17.186Z,21.55
2022-10-06T08:23:45.707Z,21.41
2022-10-06T08:26:14.262Z,21.30
2022-10-06T08:28:47.985Z,21.49
2022-10-06T08:31:15.596Z,21.21
2022-10-06T08:33:44.299Z,21.15
2022-10-06T08:36:16.741Z,21.21
2022-10-06T08:38:43.432Z,20.92
2022-10-06T08:41:25.360Z,20.85
2022-10-06T08:44:02.072Z,20.53
2022-10-06T08:46:39.342Z,20.71
2022-10-06T08:49:15.759Z,20.55
2022-10-06T08:51:54.526Z,20.62
2022-10-06T08:54:37.462Z,20.27
2022-10-06T08:57:27.918Z,20.22
2022-10-06T08:59:54.795Z,19.86
2022-10-06T09:02:31.689Z,20.25
2022-10-06T09:05:02.721Z,19.88
2022-10-06T09:08:09.534Z,19.04
2022-10-06T09:11:06.602Z,19.21
2022-10-06T09:13:50.874Z,18.95
2022-10-06T09:16:41.091Z,19.35
2022-10-06T09:19:08.981Z,19.47
2022-10-06T09:21:43.113Z,19.20
2022-10-06T09:24:16.615Z,19.17
2022-10-06T09:26:46.931Z,19.42
2022-10-06T09:29:14.038Z,19.82
2022-10-06T09:31:44.461Z,19.53
2022-10-06T09:34:17.988Z,19.54
2022-10-06T09:37:02.014Z,19.50
2022-10-06T09:39:34.670Z,19.24
2022-10-06T09:42:06.059Z,19.15
2022-10-06T09:45:00.542Z,19.18
2022-10-06T09:47:42.403Z,19.29
2022-10-06T09:50:08.973Z,19.83
2022-10-06T09:52:35.657Z,19.67
2022-10-06T09:55:12.729Z,19.98
2022-10-06T09:57:52.277Z,20.05
2022-10-06T10:00:25.942Z,19.97
2022-10-06T10:03:02.651Z,19.88
2022-10-06T10:05:32.695Z,20.18
2022-10-06T10:08:16.159Z,20.67
2022-10-06T10:10:42.781Z,19.91
2022-10-06T10:13:23.163Z,20.63
2022-10-06T10:16:00.526Z,20.41
2022-10-06T10:18:31.542Z,20.58
2022-10-06T10:21:01.362Z,20.26
2022-10-06T10:23:32.002Z,20.25
2022-10-06T10:26:19.192Z,20.24
2022-10-06T10:28:51.944Z,20.39
2022-10-06T10:31:45.063Z,20.36
2022-10-06T10:34:24.393Z,20.49
2022-10-06T10:37:14.826Z,20.41
2022-10-06T10:40:10.355Z,20.83
2022-10-06T10:42:43.368Z,20.69
2022-10-06T10:45:32.599Z,20.49
2022-10-06T10:48:01.291Z,20.55
2022-10-06T10:50:49.344Z,20.56
2022-10-06T10:53:42.599Z,20.66
2022-10-06T10:56:13.241Z,20.64
2022-10-06T10:58:42.982Z,20.99
2022-10-06T11:01:56.003Z,21.21
2022-10-06T11:04:22.688Z,20.97
2022-10-06T11:07:10.302Z,21.19
2022-10-06T11:09:42.914Z,21.40
2022-10-06T11:12:24.744Z,21.77
2022-10-06T11:15:05.333Z,21.81
2022-10-06T11:17:44.669Z,21.73
2022-10-06T11:20:38.846Z,21.90
2022-10-06T11:23:38.299Z,21.72
2022-10-06T11:26:13.419Z,21.30
2022-10-06T11:28:53.772Z,21.36
2022-10-06T11:31:28.689Z,21.70
2022-10-06T11:34:00.397Z,21.23
2022-10-06T11:36:48.535Z,21.24
2022-10-06T11:39:33.667Z,21.57
2022-10-06T11:42:00.188Z,21.48
2022-10-06T11:44:41.365Z,21.75
2022-10-06T11:47:28.134Z,22.02
2022-10-06T11:50:01.227Z,22.09
2022-10-06T11:52:27.805Z,22.18
2022-10-06T11:55:13.056Z,21.63
2022-10-06T11:58:23.439Z,20.99
2022-10-06T12:00:52.509Z,20.91
2022-10-06T12:03:30.949Z,21.68
2022-10-06T12:05:57.814Z,22.05
2022-10-06T12:08:39.459Z,21.97
2022-10-06T12:11:41.407Z,22.02
2022-10-06T12:17:58.460Z,21.68
2022-10-06T12:20:32.754Z,21.80
2022-10-06T12:23:08.090Z,21.71
2022-10-06T12:25:46.349Z,21.61
2022-10-06T12:28:26.766Z,21.47
2022-10-06T12:31:18.467Z,21.56
2022-10-06T12:33:45.766Z,22.06
2022-10-06T12:36:22.954Z,21.52
2022-10-06T12:39:01.430Z,21.75
2022-10-06T12:41:52.884Z,21.62
2022-10-06T12:44:36.447Z,21.16
2022-10-06T12:47:12.732Z,20.98
2022-10-06T12:49:47.659Z,21.40
2022-10-06T12:52:35.398Z,21.68
2022-10-06T12:55:48.076Z,21.67
2022-10-06T12:58:28.307Z,21.39
2022-10-06T13:01:01.830Z,20.87
2022-10-06T13:03:30.053Z,21.45
2022-10-06T13:06:02.667Z,21.87
2022-10-06T13:08:32.261Z,21.67
2022-10-06T13:11:26.729Z,22.06
2022-10-06T13:14:06.791Z,21.93
2022-10-06T13:16:38.979Z,21.97
2022-10-06T13:19:05.693Z,21.39
2022-10-06T13:21:33.978Z,21.55
2022-10-06T13:24:00.742Z,21.09
2022-10-06T13:26:30.107Z,20.92
2022-10-06T13:28:59.531Z,21.01
2022-10-06T13:31:30.957Z,20.72
2022-10-06T13:34:09.674Z,21.02
2022-10-06T13:36:43.720Z,20.89
2022-10-06T13:39:18.553Z,21.41
2022-10-06T13:41:52.720Z,21.39
2022-10-06T13:44:19.353Z,21.53
2022-10-06T13:46:53.674Z,21.37
2022-10-06T13:49:20.218Z,21.21
2022-10-06T13:51:52.778Z,20.79
2022-10-06T13:54:58.725Z,20.55
2022-10-06T13:57:38.873Z,20.85
2022-10-06T14:00:14.830Z,21.52
2022-10-06T14:02:47.589Z,21.03
2022-10-06T14:05:37.535Z,21.11
2022-10-06T14:08:22.242Z,20.89
2022-10-06T14:10:59.483Z,20.97
2022-10-06T14:13:37.941Z,20.98
2022-10-06T14:16:08.638Z,20.97
2022-10-06T14:18:39.452Z,20.89
2022-10-06T14:21:17.898Z,20.45
2022-10-06T14:23:49.034Z,20.66
2022-10-06T14:26:17.836Z,20.28
2022-10-06T14:28:50.424Z,20.21
2022-10-06T14:31:18.086Z,20.35
2022-10-06T14:33:46.286Z,20.40
2022-10-06T14:36:38.109Z,20.33
2022-10-06T14:39:06.979Z,20.43
2022-10-06T14:41:34.235Z,20.50
2022-10-06T14:44:04.823Z,20.43
2022-10-06T14:46:32.350Z,20.35
2022-10-06T14:49:00.717Z,20.27
2022-10-06T14:51:32.080Z,20.22
2022-10-06T14:54:01.401Z,20.50
2022-10-06T14:56:31.667Z,20.73
2022-10-06T14:59:05.666Z,20.88
2022-10-06T15:01:34.889Z,20.90
2022-10-06T15:04:05.084Z,20.78
2022-10-06T15:06:31.766Z,20.54
2022-10-06T15:08:58.846Z,20.60
2022-10-06T15:11:28.666Z,20.84
2022-10-06T15:13:57.274Z,20.76
2022-10-06T15:16:24.650Z,20.87
2022-10-06T15:18:52.388Z,20.85
2022-10-06T15:21:19.762Z,20.49
2022-10-06T15:23:46.609Z,20.63
2022-10-06T15:26:15.649Z,20.65
2022-10-06T15:28:42.297Z,20.13
2022-10-06T15:31:09.064Z,20.09
2022-10-06T15:33:35.730Z,20.06
2022-10-06T15:36:19.610Z,20.16
2022-10-06T15:38:46.981Z,20.46
2022-10-06T15:41:13.866Z,21.11
2022-10-06T15:43:41.421Z,20.73
2022-10-06T15:46:08.108Z,20.37
2022-10-06T15:48:34.872Z,20.29
2022-10-06T15:51:01.532Z,20.06
2022-10-06T15:53:28.204Z,20.25
2022-10-06T15:55:54.805Z,20.27
2022-10-06T15:58:21.443Z,20.35
2022-10-06T16:00:48.036Z,19.92
2022-10-06T16:03:14.626Z,19.62
2022-10-06T16:05:41.306Z,19.90
2022-10-06T16:08:07.859Z,19.53
2022-10-06T16:10:34.427Z,19.50
2022-10-06T16:13:00.995Z,19.68
2022-10-06T16:15:27.648Z,19.33
2022-10-06T16:17:54.271Z,19.57
2022-10-06T16:20:20.860Z,19.46
2022-10-06T16:22:47.434Z,19.20
2022-10-06T16:25:14.045Z,19.21
2022-10-06T16:27:40.699Z,19.33
2022-10-06T16:30:08.044Z,19.02
2022-10-06T16:32:34.764Z,19.00
2022-10-06T16:35:01.473Z,18.98
2022-10-06T16:37:28.064Z,18.91
2022-10-06T16:39:54.778Z,18.83
2022-10-06T16:42:21.545Z,19.04
2022-10-06T16:44:51.081Z,18.86
2022-10-06T16:47:17.852Z,18.54
2022-10-06T16:49:44.492Z,18.51
2022-10-06T16:52:11.186Z,18.42
2022-10-06T16:54:38.062Z,18.48
2022-10-06T16:57:05.709Z,18.39
2022-10-06T16:59:35.085Z,18.20
2022-10-06T17:02:02.010Z,18.23
2022-10-06T17:04:28.904Z,18.16
2022-10-06T17:06:57.291Z,18.13
2022-10-06T17:09:29.028Z,18.32
2022-10-06T17:11:58.538Z,18.05
2022-10-06T17:14:25.696Z,18.04
2022-10-06T17:16:54.667Z,17.83
2022-10-06T17:19:23.908Z,17.83
2022-10-06T17:21:57.402Z,17.91
2022-10-06T17:24:25.305Z,17.81
2022-10-06T17:26:51.959Z,17.65
2022-10-06T17:29:21.214Z,17.75
2022-10-06T17:31:51.026Z,17.67
2022-10-06T17:34:21.447Z,17.56
2022-10-06T17:36:51.568Z,17.61
2022-10-06T17:39:21.539Z,17.47
2022-10-06T17:41:50.522Z,17.49
2022-10-06T17:44:20.386Z,17.41
2022-10-06T17:46:47.148Z,17.50
2022-10-06T17:49:16.038Z,17.36
2022-10-06T17:51:44.818Z,17.35
2022-10-06T17:54:13.204Z,17.31
2022-10-06T17:56:40.034Z,17.38
2022-10-06T17:59:11.336Z,17.12
2022-10-06T18:01:38.126Z,17.16
2022-10-06T18:04:06.540Z,16.95
2022-10-06T18:06:35.571Z,16.88
2022-10-06T18:09:02.640Z,16.89
2022-10-06T18:11:30.595Z,16.98
2022-10-06T18:13:57.665Z,16.87
2022-10-06T18:16:27.635Z,16.94
2022-10-06T18:18:55.864Z,16.88
2022-10-06T18:21:24.911Z,16.89
2022-10-06T18:23:52.676Z,16.72
2022-10-06T18:26:20.983Z,16.88
2022-10-06T18:28:49.615Z,16.84
2022-10-06T18:31:18.634Z,16.73
2022-10-06T18:36:33.599Z,16.57
2022-10-06T18:39:00.219Z,16.83
2022-10-06T18:41:28.175Z,16.69
2022-10-06T18:43:55.465Z,16.60
2022-10-06T18:46:22.286Z,16.76
2022-10-06T18:48:50.093Z,16.78
2022-10-06T18:51:16.689Z,16.60
2022-10-06T18:53:43.295Z,16.69
2022-10-06T18:56:09.888Z,16.53
2022-10-06T18:58:40.666Z,16.58
2022-10-06T19:01:08.501Z,16.45
2022-10-06T19:03:35.200Z,16.49
2022-10-06T19:06:04.882Z,16.32
2022-10-06T19:08:31.543Z,16.23
2022-10-06T19:11:06.507Z,16.19
2022-10-06T19:13:34.252Z,16.12
2022-10-06T19:16:00.854Z,16.22
2022-10-06T19:18:35.491Z,16.19
2022-10-06T19:21:07.151Z,16.12
2022-10-06T19:23:37.944Z,16.06
2022-10-06T19:26:07.565Z,16.10
2022-10-06T19:28:34.794Z,16.01
2022-10-06T19:31:05.438Z,16.03
2022-10-06T19:33:32.577Z,15.92
2022-10-06T19:35:59.579Z,15.93
2022-10-06T19:38:27.667Z,15.92
2022-10-06T19:40:54.429Z,16.01
2022-10-06T19:43:21.033Z,16.01
2022-10-06T19:45:57.335Z,16.07
2022-10-06T19:48:23.976Z,15.87
2022-10-06T19:50:50.532Z,15.81
2022-10-06T19:53:17.126Z,15.96
2022-10-06T19:55:43.710Z,16.21
2022-10-06T19:58:10.389Z,16.32
2022-10-06T20:00:36.962Z,16.30
2022-10-06T20:03:03.596Z,16.72
2022-10-06T20:05:30.219Z,16.59
2022-10-06T20:07:56.841Z,16.82
2022-10-06T20:10:23.458Z,16.26
2022-10-06T20:12:50.071Z,15.93
2022-10-06T20:15:16.673Z,16.03
2022-10-06T20:17:43.509Z,15.75
2022-10-06T20:20:10.464Z,15.90
2022-10-06T20:22:37.168Z,15.83
2022-10-06T20:25:04.090Z,15.87
2022-10-06T20:27:30.725Z,15.89
2022-10-06T20:29:57.386Z,15.95
2022-10-06T20:32:24.185Z,15.91
2022-10-06T20:34:52.158Z,15.90
2022-10-06T20:37:20.069Z,16.12
2022-10-06T20:39:46.728Z,15.74
2022-10-06T20:42:15.477Z,15.67
2022-10-06T20:44:43.096Z,15.71
2022-10-06T20:47:10.638Z,15.67
2022-10-06T20:49:37.450Z,15.91
2022-10-06T20:52:05.384Z,16.03
2022-10-06T20:54:32.389Z,16.05
2022-10-06T20:56:59.074Z,16.27
2022-10-06T20:59:25.854Z,16.17
2022-10-06T21:01:52.481Z,15.87
2022-10-06T21:04:20.032Z,15.96
2022-10-06T21:06:47.510Z,16.08
2022-10-06T21:09:16.332Z,16.39
2022-10-06T21:11:44.264Z,16.62
2022-10-06T21:14:12.246Z,16.54
2022-10-06T21:16:42.735Z,16.52
2022-10-06T21:19:12.602Z,16.03
2022-10-06T21:21:39.197Z,16.97
2022-10-06T21:24:06.490Z,17.22
2022-10-06T21:26:33.195Z,17.69
2022-10-06T21:28:59.819Z,17.35
2022-10-06T21:31:27.910Z,17.56
2022-10-06T21:33:55.366Z,17.41
2022-10-06T21:36:25.134Z,17.00
2022-10-06T21:38:55.130Z,16.48
2022-10-06T21:41:25.212Z,15.94
2022-10-06T21:44:14.051Z,16.36
2022-10-06T21:46:54.958Z,15.65
2022-10-06T21:49:23.832Z,15.58
2022-10-06T21:51:52.777Z,15.43
2022-10-06T21:54:20.951Z,15.08
2022-10-06T21:56:47.956Z,14.94
2022-10-06T21:59:14.582Z,14.80
2022-10-06T22:01:43.832Z,15.00
2022-10-06T22:04:11.566Z,15.09
2022-10-06T22:06:38.159Z,15.28
2022-10-06T22:09:07.934Z,15.34
2022-10-06T22:11:39.844Z,15.29
2022-10-06T22:14:11.777Z,15.22
2022-10-06T22:16:38.969Z,15.22
2022-10-06T22:19:10.010Z,15.27
2022-10-06T22:21:42.338Z,15.31
2022-10-06T22:24:12.333Z,15.63
2022-10-06T22:26:40.596Z,15.67
2022-10-06T22:29:09.715Z,16.04
2022-10-06T22:31:39.437Z,16.50
2022-10-06T22:34:07.045Z,17.04
2022-10-06T22:36:34.250Z,16.99
2022-10-06T22:39:01.442Z,16.58
2022-10-06T22:41:28.912Z,16.16
2022-10-06T22:43:58.026Z,16.25
2022-10-06T22:46:26.642Z,15.75
2022-10-06T22:48:53.793Z,15.30
2022-10-06T22:51:20.898Z,15.62
2022-10-06T22:53:55.171Z,15.68
2022-10-06T22:56:25.030Z,15.76
2022-10-06T22:58:51.601Z,15.26
2022-10-06T23:01:19.503Z,15.37
2022-10-06T23:03:47.211Z,15.05
2022-10-06T23:06:16.265Z,14.71
2022-10-06T23:08:43.573Z,14.60
2022-10-06T23:11:19.963Z,14.84
2022-10-06T23:13:46.759Z,15.08
2022-10-06T23:16:16.096Z,15.39
2022-10-06T23:18:45.773Z,15.76
2022-10-06T23:21:19.067Z,15.07
2022-10-06T23:23:46.709Z,14.92
2022-10-06T23:26:15.878Z,15.75
2022-10-06T23:28:42.972Z,15.25
2022-10-06T23:31:10.684Z,14.78
2022-10-06T23:33:37.361Z,14.55
2022-10-06T23:36:07.080Z,15.02
2022-10-06T23:38:35.341Z,15.00
2022-10-06T23:41:02.254Z,14.80
2022-10-06T23:43:28.807Z,14.96
2022-10-06T23:45:55.407Z,14.87
2022-10-06T23:48:22.554Z,14.57
2022-10-06T23:51:04.378Z,14.83
2022-10-06T23:53:32.125Z,15.10
2022-10-06T23:55:59.382Z,15.64
2022-10-06T23:58:27.751Z,15.66
